Time;durP1;ratioP1;P1;durP2;ratioP2;P2;SDS_P1;SDS_P2;PMS_P1;PMS_P2;Temp;Humidity;BMP_temperature;BMP_pressure;BME280_temperature;BME280_humidity;BME280_pressure;Samples;Min_cycle;Max_cycle;Signal;HPM_P1;HPM_P2
2021/03/19 00:00:42;;;;;;;3.25;1.00;;;;;;;15.95;43.27;102072.88;4970592;28;124239;-67
2021/03/19 00:03:08;;;;;;;6.85;1.35;;;;;;;15.94;43.62;102079.09;4981055;28;113987;-69
2021/03/19 00:05:34;;;;;;;7.10;1.30;;;;;;;15.93;43.35;102082.66;4970589;28;113902;-67
2021/03/19 00:08:00;;;;;;;5.95;0.80;;;;;;;15.94;43.70;102076.44;4970561;28;124337;-71
2021/03/19 00:10:32;;;;;;;4.53;0.80;;;;;;;15.94;43.80;102078.22;4971289;28;124052;-70
2021/03/19 00:13:05;;;;;;;1.73;0.73;;;;;;;15.92;43.65;102080.94;4964012;28;113921;-71
2021/03/19 00:15:32;;;;;;;1.83;0.50;;;;;;;15.92;43.63;102078.28;4963801;28;113967;-70
2021/03/19 00:17:59;;;;;;;4.25;1.08;;;;;;;15.92;43.71;102080.94;4970357;28;124475;-69
2021/03/19 00:20:26;;;;;;;6.03;1.10;;;;;;;15.90;43.51;102085.41;4971435;28;123915;-67
2021/03/19 00:22:53;;;;;;;7.43;1.10;;;;;;;15.92;43.68;102082.69;4954143;28;113186;-71
2021/03/19 00:25:19;;;;;;;4.30;1.10;;;;;;;15.91;43.55;102086.25;4990918;28;114050;-72
2021/03/19 00:27:45;;;;;;;4.18;0.70;;;;;;;15.89;43.48;102086.31;4989219;28;124502;-77
2021/03/19 00:30:12;;;;;;;3.25;0.90;;;;;;;15.91;43.47;102091.56;4985440;28;123618;-69
2021/03/19 00:32:40;;;;;;;1.92;1.15;;;;;;;15.89;43.54;102090.72;4970507;28;114990;-69
2021/03/19 00:35:07;;;;;;;4.57;0.90;;;;;;;15.87;43.59;102085.47;4970731;28;114834;-70
2021/03/19 00:37:33;;;;;;;4.90;0.70;;;;;;;15.88;43.51;102087.22;4970578;28;124551;-71
2021/03/19 00:39:59;;;;;;;5.07;0.95;;;;;;;15.88;43.31;102096.94;4969645;28;124430;-68
2021/03/19 00:42:25;;;;;;;7.45;1.05;;;;;;;15.89;43.35;102094.25;4970816;28;114516;-67
2021/03/19 00:44:51;;;;;;;4.32;0.80;;;;;;;15.87;43.32;102098.72;4951152;28;113010;-76
2021/03/19 00:47:18;;;;;;;6.40;1.10;;;;;;;15.88;43.47;102097.81;4968732;28;124541;-75
2021/03/19 00:49:44;;;;;;;8.40;0.93;;;;;;;15.86;43.41;102104.94;4969052;28;124215;-77
2021/03/19 00:52:10;;;;;;;5.38;1.02;;;;;;;15.86;43.47;102106.69;4952712;28;113847;-72
2021/03/19 00:54:36;;;;;;;7.05;0.93;;;;;;;15.86;43.42;102110.22;4983249;28;113985;-68
2021/03/19 00:57:02;;;;;;;2.78;0.80;;;;;;;15.84;43.34;102106.72;4979872;28;124504;-73
2021/03/19 00:59:28;;;;;;;1.85;0.70;;;;;;;15.88;43.31;102120.75;4990103;28;124936;-72
2021/03/19 01:01:54;;;;;;;5.40;0.82;;;;;;;15.87;43.09;102119.03;4970911;28;115417;-69
2021/03/19 01:04:20;;;;;;;5.85;0.90;;;;;;;15.85;43.30;102118.16;4970127;28;113910;-72
2021/03/19 01:06:46;;;;;;;5.32;0.85;;;;;;;15.86;43.22;102122.59;4970629;28;124483;-74
2021/03/19 01:09:12;;;;;;;9.32;1.10;;;;;;;15.86;43.47;102125.22;4971492;28;124004;-72
2021/03/19 01:11:38;;;;;;;2.33;0.80;;;;;;;15.85;43.30;102124.34;4971527;28;114307;-68
2021/03/19 01:14:04;;;;;;;1.55;0.68;;;;;;;15.85;43.24;102123.47;4970678;28;113686;-68
2021/03/19 01:16:31;;;;;;;5.07;0.80;;;;;;;15.83;43.48;102122.63;4969992;28;124151;-81
2021/03/19 01:18:57;;;;;;;3.35;0.60;;;;;;;15.85;43.24;102128.75;4969946;28;124611;-71
2021/03/19 01:21:23;;;;;;;5.28;1.10;;;;;;;15.83;43.47;102131.44;4970004;28;115287;-74
2021/03/19 01:23:49;;;;;;;4.38;0.90;;;;;;;15.84;43.20;102124.38;4951635;28;114899;-68
2021/03/19 01:26:16;;;;;;;7.00;0.88;;;;;;;15.83;43.18;102139.38;4970585;28;124528;-76
2021/03/19 01:28:45;;;;;;;8.70;1.40;;;;;;;15.83;43.21;102141.16;4970239;28;124632;-71
2021/03/19 01:31:12;;;;;;;4.60;0.77;;;;;;;15.82;43.35;102140.31;4966555;28;114509;-67
2021/03/19 01:33:38;;;;;;;4.82;1.00;;;;;;;15.82;43.28;102136.78;4970112;28;114371;-68
2021/03/19 01:36:05;;;;;;;5.10;1.15;;;;;;;15.81;43.20;102138.56;4951298;28;123032;-68
2021/03/19 01:38:36;;;;;;;1.98;0.50;;;;;;;15.82;43.28;102134.13;4970806;28;123475;-67
2021/03/19 01:41:03;;;;;;;2.70;0.57;;;;;;;15.81;43.01;102148.28;4970302;28;114867;-69
2021/03/19 01:44:07;;;;;;;2.40;0.63;;;;;;;15.82;43.22;102152.66;4968717;28;114141;-68
2021/03/19 01:47:10;;;;;;;3.25;0.80;;;;;;;15.79;42.97;102142.16;4968973;28;124274;-68
2021/03/19 01:50:15;;;;;;;7.05;0.85;;;;;;;15.79;43.13;102150.97;4969966;28;124294;-71
2021/03/19 01:53:18;;;;;;;1.52;0.40;;;;;;;15.78;43.16;102141.28;4967411;28;114661;-73
2021/03/19 01:56:21;;;;;;;4.70;0.77;;;;;;;15.79;42.99;102139.53;4968228;28;115119;-69
2021/03/19 01:59:24;;;;;;;4.97;0.80;;;;;;;15.80;42.99;102143.91;4988340;28;124568;-69
2021/03/19 02:02:28;;;;;;;1.67;0.70;;;;;;;15.77;42.90;102142.22;4980612;28;124046;-70
2021/03/19 02:08:17;;;;;;;3.88;0.90;;;;;;;15.78;42.83;102157.19;5809330;22;98895;-71
2021/03/19 02:11:21;;;;;;;5.93;0.80;;;;;;;15.77;42.91;102158.09;4977465;28;122867;-71
2021/03/19 02:14:40;;;;;;;4.40;0.75;;;;;;;15.78;42.72;102153.66;4967607;28;123808;-69
2021/03/19 02:17:44;;;;;;;2.83;0.88;;;;;;;15.77;42.84;102166.03;4882377;28;115054;-69
2021/03/19 02:20:50;;;;;;;1.60;0.60;;;;;;;15.77;42.71;102163.38;5005801;27;115439;-77
2021/03/19 02:23:54;;;;;;;2.00;0.60;;;;;;;15.77;42.80;102173.09;5037190;22;124860;-74
2021/03/19 02:26:59;;;;;;;2.38;0.60;;;;;;;15.77;42.73;102176.63;4989673;28;124971;-73
2021/03/19 02:32:31;;;;;;;3.85;0.55;;;;;;;15.77;42.70;102157.22;4746010;26;97498;-71
2021/03/19 02:35:00;;;;;;;3.85;0.98;;;;;;;15.75;42.74;102166.97;4968368;28;123868;-71
2021/03/19 02:37:29;;;;;;;5.82;0.70;;;;;;;15.75;42.58;102165.19;4954497;28;124023;-75
2021/03/19 02:39:55;;;;;;;1.50;0.52;;;;;;;15.76;42.59;102166.06;4968131;28;114050;-69
2021/03/19 02:42:29;;;;;;;3.08;0.70;;;;;;;15.76;42.50;102161.66;4930940;28;113620;-68
2021/03/19 02:44:55;;;;;;;;;;;;;;;15.75;42.55;102169.63;4948532;28;124050;-69
2021/03/19 02:47:21;;;;;;;4.85;0.70;;;;;;;15.75;42.50;102167.84;4951362;28;124742;-74
2021/03/19 02:49:47;;;;;;;3.85;0.63;;;;;;;15.74;42.49;102163.44;4951005;28;114869;-68
2021/03/19 02:57:27;;;;;;;1.85;0.55;;;;;;;15.73;42.52;102169.63;4800842;26;96833;-70
2021/03/19 02:59:55;;;;;;;4.72;0.70;;;;;;;15.76;42.53;102181.94;4949948;28;114463;-69
2021/03/19 03:02:22;;;;;;;2.88;0.50;;;;;;;15.76;42.51;102181.94;4945019;28;114672;-69
2021/03/19 03:04:49;;;;;;;3.20;0.98;;;;;;;15.73;42.45;102183.72;4952092;28;124742;-70
2021/03/19 03:07:21;;;;;;;1.17;0.55;;;;;;;15.74;42.42;102184.59;4944272;28;123646;-71
2021/03/19 03:09:47;;;;;;;2.47;0.75;;;;;;;15.73;42.29;102188.16;4932655;28;115087;-68
2021/03/19 03:12:13;;;;;;;5.10;0.70;;;;;;;15.73;42.52;102196.09;4932752;28;115198;-70
2021/03/19 03:14:39;;;;;;;1.80;0.65;;;;;;;15.73;42.12;102190.81;4932700;28;123890;-72
2021/03/19 03:17:05;;;;;;;3.22;0.90;;;;;;;15.72;42.37;102197.88;5240532;22;123805;-78
2021/03/19 03:19:32;;;;;;;3.90;0.50;;;;;;;15.66;42.23;102191.88;5030679;22;115143;-71
2021/03/19 03:21:58;;;;;;;2.75;0.60;;;;;;;15.69;42.36;102197.09;5139269;23;113927;-74
2021/03/19 03:24:26;;;;;;;2.08;0.60;;;;;;;15.71;42.23;102197.91;4971990;28;125061;-74
2021/03/19 03:26:53;;;;;;;3.47;0.80;;;;;;;15.70;42.14;102201.47;4960445;28;123855;-76
2021/03/19 03:29:21;;;;;;;1.65;0.60;;;;;;;15.70;42.32;102194.41;4942628;28;114036;-70
2021/03/19 03:31:48;;;;;;;2.67;0.68;;;;;;;15.70;42.09;102199.69;4968106;28;112677;-70
2021/03/19 03:34:14;;;;;;;1.35;0.52;;;;;;;15.69;42.17;102210.31;4972008;28;124447;-74
2021/03/19 03:36:41;;;;;;;3.22;0.50;;;;;;;15.69;42.12;102207.69;4979971;28;124060;-80
2021/03/19 03:39:15;;;;;;;1.58;0.50;;;;;;;15.71;42.16;102211.16;4990407;28;114478;-74
2021/03/19 03:44:32;;;;;;;4.70;0.70;;;;;;;15.69;42.14;102220.91;4736444;26;96396;-72
2021/03/19 03:47:00;;;;;;;2.17;0.70;;;;;;;15.68;42.08;102222.69;5032378;23;123563;-67
2021/03/19 03:49:27;;;;;;;0.77;0.40;;;;;;;15.68;42.07;102227.09;5134040;22;114527;-71
2021/03/19 03:51:53;;;;;;;3.17;0.90;;;;;;;15.67;42.11;102226.25;4990027;28;114571;-68
2021/03/19 03:54:20;;;;;;;4.13;0.60;;;;;;;15.68;42.08;102221.81;4969681;28;124566;-73
2021/03/19 03:56:46;;;;;;;1.60;0.57;;;;;;;15.67;41.94;102228.03;4978584;28;124861;-79
2021/03/19 03:59:12;;;;;;;2.00;0.80;;;;;;;15.65;42.01;102227.19;4970865;28;115429;-74
2021/03/19 04:01:40;;;;;;;8.13;0.80;;;;;;;15.68;42.02;102229.75;4971641;28;114903;-73
2021/03/19 04:04:10;;;;;;;2.78;0.68;;;;;;;15.66;42.00;102228.94;4970711;28;124278;-70
2021/03/19 04:06:36;;;;;;;3.80;1.00;;;;;;;15.65;41.98;102227.19;4971184;28;124136;-70
2021/03/19 04:09:03;;;;;;;1.25;0.70;;;;;;;15.64;41.97;102225.44;4971756;28;113928;-73
2021/03/19 04:11:30;;;;;;;2.80;0.70;;;;;;;15.65;41.97;102227.19;4970798;28;114870;-71
2021/03/19 04:13:56;;;;;;;2.80;0.60;;;;;;;15.64;41.93;102225.44;4972236;28;124446;-68
2021/03/19 04:16:22;;;;;;;1.42;0.80;;;;;;;15.66;41.93;102235.09;4991334;28;124163;-74
2021/03/19 04:18:48;;;;;;;2.42;0.80;;;;;;;15.65;41.79;102237.78;4997284;28;113769;-68
2021/03/19 04:21:14;;;;;;;2.22;0.75;;;;;;;15.64;41.93;102233.38;4982257;28;113990;-75
2021/03/19 04:23:43;;;;;;;1.52;0.40;;;;;;;15.61;41.82;102244.03;4971433;28;124070;-79
2021/03/19 04:26:17;;;;;;;2.47;0.75;;;;;;;15.62;41.94;102253.69;4971410;28;124157;-71
2021/03/19 04:28:43;;;;;;;2.53;0.50;;;;;;;15.61;41.91;102259.91;4971621;28;114378;-75
2021/03/19 04:31:09;;;;;;;2.83;0.60;;;;;;;15.62;41.92;102261.63;4971191;28;114088;-70
2021/03/19 04:33:35;;;;;;;1.63;0.70;;;;;;;15.61;41.95;102259.91;4951281;28;123980;-75
2021/03/19 04:36:31;;;;;;;3.70;0.80;;;;;;;15.61;41.69;102255.47;4971414;28;124569;-74
2021/03/19 04:39:00;;;;;;;8.77;1.10;;;;;;;15.62;41.74;102261.63;4971463;28;114793;-69
2021/03/19 04:41:28;;;;;;;3.00;1.23;;;;;;;15.60;41.84;102259.03;4973159;28;114073;-69
2021/03/19 04:43:55;;;;;;;3.20;1.08;;;;;;;15.60;41.91;102263.44;4972752;28;124335;-66
2021/03/19 04:46:21;;;;;;;2.50;1.10;;;;;;;15.60;41.68;102274.03;4973952;28;123115;-67
2021/03/19 04:48:47;;;;;;;3.38;1.40;;;;;;;15.60;41.69;102274.03;4985759;23;115798;-70
2021/03/19 04:51:13;;;;;;;2.25;0.90;;;;;;;15.58;41.65;102270.53;4971847;28;114966;-71
2021/03/19 04:53:39;;;;;;;3.97;1.05;;;;;;;15.59;41.64;102290.78;4971332;28;123773;-72
2021/03/19 04:56:05;;;;;;;1.80;0.95;;;;;;;15.58;41.50;102283.75;4970962;28;123972;-74
2021/03/19 04:58:31;;;;;;;5.50;1.05;;;;;;;15.57;41.50;102287.31;4953043;28;113354;-75
2021/03/19 05:00:57;;;;;;;2.28;1.27;;;;;;;15.58;41.58;102289.03;4971061;28;114020;-78
2021/03/19 05:03:23;;;;;;;3.85;1.10;;;;;;;15.58;41.50;102292.56;4970128;28;124234;-69
2021/03/19 05:05:49;;;;;;;2.95;1.15;;;;;;;15.58;41.48;102297.00;4954097;28;123652;-74
2021/03/19 05:08:15;;;;;;;4.35;1.50;;;;;;;15.58;41.32;102310.22;4971589;28;114447;-71
2021/03/19 05:10:41;;;;;;;6.70;1.90;;;;;;;15.59;41.46;102315.47;4971659;28;115094;-68
2021/03/19 05:13:09;;;;;;;4.38;1.33;;;;;;;15.57;41.51;102313.78;4953482;28;124749;-72
2021/03/19 05:15:37;;;;;;;3.47;1.05;;;;;;;15.58;41.32;102326.09;4951805;28;124158;-70
2021/03/19 05:18:03;;;;;;;3.53;1.23;;;;;;;15.57;41.37;102335.81;4971517;28;114622;-73
2021/03/19 05:20:29;;;;;;;4.45;1.52;;;;;;;15.57;41.32;102333.16;4971547;28;113572;-72
2021/03/19 05:22:56;;;;;;;4.32;1.45;;;;;;;15.56;41.47;102327.91;4969782;28;124406;-69
2021/03/19 05:25:27;;;;;;;5.78;1.50;;;;;;;15.57;41.51;102334.94;4970383;28;123986;-72
2021/03/19 05:27:53;;;;;;;3.33;1.52;;;;;;;15.57;41.27;102333.16;4959612;28;114089;-71
2021/03/19 05:30:22;;;;;;;8.73;1.60;;;;;;;15.57;41.32;102327.00;4935687;28;113416;-68
2021/03/19 05:32:48;;;;;;;5.40;2.08;;;;;;;15.57;41.21;102327.00;4937655;28;124006;-69
2021/03/19 05:35:16;;;;;;;7.03;1.90;;;;;;;15.59;41.13;102333.13;4956074;28;124265;-69
2021/03/19 05:37:42;;;;;;;5.65;1.38;;;;;;;15.67;41.02;102334.75;4957270;28;115526;-69
2021/03/19 05:40:13;;;;;;;5.65;1.55;;;;;;;15.75;40.68;102341.69;4959354;28;114563;-70
2021/03/19 05:42:40;;;;;;;7.32;1.80;;;;;;;15.69;40.86;102337.38;4976247;28;125240;-71
2021/03/19 05:45:26;;;;;;;9.35;1.20;;;;;;;15.68;40.70;102344.44;4976561;28;126176;-70
2021/03/19 05:47:56;;;;;;;2.78;1.27;;;;;;;15.73;40.77;102341.69;4975884;28;115153;-71
2021/03/19 05:50:34;;;;;;;4.35;1.40;;;;;;;15.70;40.71;102337.31;4977000;28;114724;-75
2021/03/19 05:53:14;;;;;;;4.07;1.30;;;;;;;15.71;40.69;102330.25;4975742;28;124602;-72
2021/03/19 05:55:41;;;;;;;4.03;1.10;;;;;;;15.67;40.52;102336.53;4976902;28;125505;-70
2021/03/19 05:58:23;;;;;;;3.80;1.60;;;;;;;15.76;40.44;102338.13;4975593;28;117561;-73
2021/03/19 06:00:54;;;;;;;6.07;1.45;;;;;;;15.75;40.44;102346.97;4975878;28;114673;-76
2021/03/19 06:03:20;;;;;;;2.60;1.20;;;;;;;15.76;40.26;102352.22;4974672;28;125260;-69
2021/03/19 06:06:05;;;;;;;2.90;1.15;;;;;;;15.78;40.23;102368.94;4974610;28;124705;-69
2021/03/19 06:08:41;;;;;;;5.50;1.42;;;;;;;15.78;40.28;102368.94;4969226;28;115186;-69
2021/03/19 06:11:09;;;;;;;2.95;1.20;;;;;;;15.78;40.16;102371.59;4959101;28;114254;-72
2021/03/19 06:13:50;;;;;;;2.80;1.20;;;;;;;15.80;40.16;102375.06;4958740;28;124326;-70
2021/03/19 06:16:43;;;;;;;2.58;1.23;;;;;;;15.79;40.23;102386.56;4960942;28;124077;-68
2021/03/19 06:19:28;;;;;;;3.53;1.20;;;;;;;15.81;40.23;102386.53;4958111;28;114103;-70
2021/03/19 06:22:06;;;;;;;3.55;1.20;;;;;;;15.84;40.00;102386.47;4953704;28;114257;-72
2021/03/19 06:24:34;;;;;;;2.35;1.15;;;;;;;15.87;39.93;102392.59;4951912;28;123978;-66
2021/03/19 06:27:39;;;;;;;8.32;1.05;;;;;;;15.90;39.85;102400.47;4951272;28;124041;-79
2021/03/19 06:30:18;;;;;;;3.28;1.20;;;;;;;15.91;39.98;102399.56;4939188;28;115560;-78
2021/03/19 06:32:59;;;;;;;4.47;1.17;;;;;;;15.92;39.85;102405.72;4952115;28;114949;-81
2021/03/19 06:35:32;;;;;;;3.00;1.20;;;;;;;15.96;39.74;102418.84;4947837;28;124007;-74
2021/03/19 06:38:24;;;;;;;4.20;1.40;;;;;;;15.97;39.79;102407.38;4947745;28;125165;-69
2021/03/19 06:40:50;;;;;;;6.03;1.27;;;;;;;16.05;39.90;102416.91;4949089;28;114234;-67
2021/03/19 06:43:27;;;;;;;4.25;1.27;;;;;;;16.13;39.22;102420.28;4951184;28;114226;-74
2021/03/19 06:46:13;;;;;;;3.60;1.20;;;;;;;16.23;39.24;102422.72;4927030;28;124272;-77
2021/03/19 06:48:47;;;;;;;2.60;1.02;;;;;;;16.29;38.97;102425.19;4933612;28;123909;-69
2021/03/19 06:51:31;;;;;;;3.42;1.15;;;;;;;16.29;39.10;102433.16;4945071;28;114783;-76
2021/03/19 06:53:59;;;;;;;4.30;0.90;;;;;;;16.33;38.88;102427.81;4952247;28;112413;-68
2021/03/19 06:56:25;;;;;;;2.97;1.10;;;;;;;16.40;38.89;102430.25;4952153;28;123987;-68
2021/03/19 06:58:52;;;;;;;5.07;1.13;;;;;;;16.41;38.92;102437.31;4952465;28;124523;-67
2021/03/19 07:01:23;;;;;;;4.45;1.38;;;;;;;16.45;38.87;102435.47;4953275;28;114354;-67
2021/03/19 07:04:32;;;;;;;4.63;1.25;;;;;;;16.51;38.64;102441.50;4952090;28;113865;-71
2021/03/19 07:07:49;;;;;;;1.85;1.00;;;;;;;16.48;38.43;102435.41;4932793;28;124306;-70
2021/03/19 07:10:19;;;;;;;2.80;1.08;;;;;;;16.51;38.48;102441.50;4923229;28;124432;-68
2021/03/19 07:12:55;;;;;;;4.05;1.20;;;;;;;16.57;38.34;102446.66;4951503;28;115086;-67
2021/03/19 07:15:58;;;;;;;2.53;1.10;;;;;;;16.62;38.28;102443.03;4951630;28;114157;-67
2021/03/19 07:18:43;;;;;;;5.78;1.98;;;;;;;16.68;38.12;102449.13;4943205;28;123877;-68
2021/03/19 07:21:47;;;;;;;4.15;1.05;;;;;;;16.73;38.33;102439.25;4950678;28;124286;-68
2021/03/19 07:24:29;;;;;;;;;;;;;;;16.80;38.95;102445.31;4951573;28;115525;-75
2021/03/19 07:27:31;;;;;;;2.55;0.95;;;;;;;16.80;38.62;102451.47;4949129;28;114491;-70
2021/03/19 07:30:21;;;;;;;5.50;1.67;;;;;;;16.87;38.17;102462.78;4960923;28;125025;-69
2021/03/19 07:33:35;;;;;;;9.82;1.52;;;;;;;16.90;38.08;102462.75;4952565;28;124564;-71
2021/03/19 07:36:19;;;;;;;2.17;1.30;;;;;;;16.98;37.79;102466.06;4954036;28;113867;-70
2021/03/19 07:38:57;;;;;;;3.03;1.33;;;;;;;16.97;37.93;102466.09;4952402;28;114264;-69
2021/03/19 07:41:48;;;;;;;2.28;1.25;;;;;;;17.11;38.06;102472.81;4944251;28;124010;-69
2021/03/19 07:44:21;;;;;;;3.33;1.10;;;;;;;17.13;38.12;102475.44;4939638;28;124048;-69
2021/03/19 07:46:49;;;;;;;;;;;;;;;17.23;37.92;102474.31;4947501;28;114598;-70
2021/03/19 07:49:31;;;;;;;1.77;1.15;;;;;;;17.24;37.96;102473.41;4946152;28;113880;-70
2021/03/19 07:51:59;;;;;;;4.68;1.48;;;;;;;17.31;38.03;102474.97;4944509;28;124547;-68
2021/03/19 07:55:07;;;;;;;3.55;1.48;;;;;;;17.37;37.85;102480.13;4938400;28;123597;-69
2021/03/19 07:57:51;;;;;;;2.33;1.08;;;;;;;17.41;37.31;102472.94;4930670;28;114090;-70
2021/03/19 08:00:22;;;;;;;;;;;;;;;17.45;37.74;102487.91;4940536;28;114033;-78
2021/03/19 08:02:54;;;;;;;2.45;1.10;;;;;;;17.52;37.58;102491.25;4942789;28;124321;-68
2021/03/19 08:05:28;;;;;;;1.95;1.17;;;;;;;17.53;37.28;102493.84;4942526;28;124063;-71
2021/03/19 08:08:19;;;;;;;4.88;1.60;;;;;;;17.68;36.88;102495.25;4941441;28;114480;-70
2021/03/19 08:11:10;;;;;;;3.17;1.23;;;;;;;17.71;36.86;102509.34;4943588;28;113850;-68
2021/03/19 08:14:18;;;;;;;2.63;1.00;;;;;;;17.83;36.57;102509.94;4943919;28;124077;-70
2021/03/19 08:17:20;;;;;;;4.43;1.52;;;;;;;17.90;36.62;102511.53;4923424;28;124522;-68
2021/03/19 08:20:15;;;;;;;1.85;1.13;;;;;;;18.01;36.60;102517.41;4941596;28;114913;-73
2021/03/19 08:23:01;;;;;;;2.85;1.30;;;;;;;18.37;35.34;102519.94;4942364;28;114925;-68
2021/03/19 08:25:39;;;;;;;1.77;1.20;;;;;;;18.83;34.89;102524.75;4943508;28;124416;-71
2021/03/19 08:28:22;;;;;;;2.17;1.25;;;;;;;21.19;31.04;102516.25;4943742;28;123478;-69
2021/03/19 08:31:33;;;;;;;2.03;1.37;;;;;;;24.76;25.03;102513.16;4945981;28;114618;-75
2021/03/19 08:34:39;;;;;;;3.03;2.75;;;;;;;25.72;23.41;102500.34;4943098;28;114490;-68
2021/03/19 08:37:20;;;;;;;1.90;1.00;;;;;;;26.24;22.80;102513.25;4924817;28;124204;-70
2021/03/19 08:39:46;;;;;;;0.95;0.73;;;;;;;26.31;23.08;102521.81;4944165;28;125203;-68
2021/03/19 08:42:20;;;;;;;4.18;0.80;;;;;;;26.47;22.50;102519.03;4942768;28;115157;-68
2021/03/19 08:44:47;;;;;;;2.53;0.95;;;;;;;26.27;22.73;102523.81;4949458;28;114163;-72
2021/03/19 08:47:24;;;;;;;1.95;0.80;;;;;;;26.20;22.51;102522.50;4928875;28;123574;-68
2021/03/19 08:49:59;;;;;;;2.15;0.80;;;;;;;26.01;22.97;102520.06;4942917;28;124619;-73
2021/03/19 08:52:40;;;;;;;2.92;0.98;;;;;;;25.93;22.74;102527.75;4950530;28;114336;-69
2021/03/19 08:55:12;;;;;;;0.70;0.60;;;;;;;26.12;23.09;102522.09;4940218;28;114617;-68
2021/03/19 08:57:44;;;;;;;2.17;0.80;;;;;;;26.05;22.83;102540.47;4941378;28;124145;-68
2021/03/19 09:00:32;;;;;;;1.90;0.75;;;;;;;25.79;23.30;102531.28;4942710;28;125064;-75
2021/03/19 09:03:02;;;;;;;1.88;0.82;;;;;;;25.93;22.89;102537.63;4908472;28;115648;-70
2021/03/19 09:06:07;;;;;;;1.33;0.73;;;;;;;26.18;22.55;102543.25;4932523;28;113810;-71
2021/03/19 09:08:51;;;;;;;1.60;0.80;;;;;;;25.73;23.35;102542.44;4944981;28;123124;-69
2021/03/19 09:11:20;;;;;;;1.88;0.63;;;;;;;25.24;24.00;102552.50;4946861;28;124046;-71
2021/03/19 09:14:02;;;;;;;1.88;0.70;;;;;;;20.66;30.72;102557.53;4947322;28;115136;-72
2021/03/19 09:16:49;;;;;;;4.18;0.90;;;;;;;18.84;33.94;102572.59;4945025;28;114994;-70
2021/03/19 09:19:40;;;;;;;1.10;0.60;;;;;;;18.64;34.64;102574.97;4941487;28;122614;-75
2021/03/19 09:22:24;;;;;;;1.40;0.70;;;;;;;18.57;34.59;102579.59;4944300;28;124388;-72
2021/03/19 09:25:09;;;;;;;2.33;0.85;;;;;;;18.67;34.20;102580.19;4945206;28;114235;-70
2021/03/19 09:27:42;;;;;;;1.45;0.77;;;;;;;18.57;34.63;102581.34;4945571;28;114314;-74
2021/03/19 09:30:14;;;;;;;1.63;0.60;;;;;;;18.61;34.51;102588.34;4943006;28;123916;-68
2021/03/19 09:32:48;;;;;;;1.20;0.70;;;;;;;18.58;34.67;102589.31;4944222;28;124596;-69
2021/03/19 09:35:32;;;;;;;0.65;0.50;;;;;;;18.63;34.92;102590.03;4944342;28;114498;-77
2021/03/19 09:37:59;;;;;;;1.17;0.50;;;;;;;18.60;34.83;102589.25;4944191;28;114105;-70
2021/03/19 09:40:44;;;;;;;1.33;0.60;;;;;;;18.59;34.84;102587.53;4944563;28;124336;-70
2021/03/19 09:43:46;;;;;;;0.70;0.50;;;;;;;18.58;35.01;102591.09;4928852;28;125716;-72
2021/03/19 09:46:29;;;;;;;2.75;0.80;;;;;;;18.63;34.85;102594.47;4935125;28;113075;-70
2021/03/19 09:49:08;;;;;;;2.20;0.85;;;;;;;18.67;34.61;102589.97;4943676;28;114083;-74
2021/03/19 09:51:43;;;;;;;1.17;0.68;;;;;;;18.74;34.63;102600.38;4944087;28;124262;-71
2021/03/19 09:54:27;;;;;;;2.35;0.60;;;;;;;18.68;34.75;102603.22;4943934;28;123860;-72
2021/03/19 09:57:00;;;;;;;1.30;0.40;;;;;;;18.69;34.68;102607.66;4945234;28;114969;-69
2021/03/19 09:59:30;;;;;;;1.45;0.60;;;;;;;18.69;34.94;102599.66;4937301;28;114295;-74
2021/03/19 10:01:57;;;;;;;2.70;0.70;;;;;;;18.79;34.33;102613.53;4944383;28;124434;-72
2021/03/19 10:04:39;;;;;;;1.40;0.55;;;;;;;18.85;33.86;102610.72;4944088;28;123839;-73
2021/03/19 10:07:19;;;;;;;1.90;0.50;;;;;;;18.76;34.53;102606.53;4944855;28;115326;-75
2021/03/19 10:09:51;;;;;;;1.35;0.63;;;;;;;18.89;33.59;102612.34;4943617;28;114342;-75
2021/03/19 10:12:31;;;;;;;1.60;0.52;;;;;;;18.87;34.23;102614.19;4943970;28;124115;-68
2021/03/19 10:15:14;;;;;;;2.58;0.73;;;;;;;18.96;33.91;102624.56;4928867;28;122673;-69
2021/03/19 10:17:48;;;;;;;1.02;0.60;;;;;;;19.07;33.86;102621.59;4941474;28;114556;-79
2021/03/19 10:20:22;;;;;;;1.88;0.70;;;;;;;19.03;33.75;102611.97;4940295;28;113829;-78
2021/03/19 10:22:51;;;;;;;1.25;0.73;;;;;;;18.99;33.81;102616.47;4941319;28;123966;-75
2021/03/19 10:25:29;;;;;;;1.77;0.63;;;;;;;19.04;33.00;102624.34;4939847;28;124238;-72
2021/03/19 10:28:03;;;;;;;0.95;0.50;;;;;;;19.11;33.17;102620.56;4941188;28;114621;-69
2021/03/19 10:30:43;;;;;;;3.03;0.60;;;;;;;19.05;33.03;102618.09;4941710;28;114010;-77
2021/03/19 10:33:16;;;;;;;2.78;0.68;;;;;;;19.07;33.16;102613.59;4949507;28;124055;-69
2021/03/19 10:35:49;;;;;;;2.05;0.60;;;;;;;19.13;32.98;102621.38;4942183;28;124305;-69
2021/03/19 10:38:27;;;;;;;2.25;1.08;;;;;;;19.07;32.94;102614.47;4943519;28;114266;-68
2021/03/19 10:41:00;;;;;;;2.40;0.60;;;;;;;19.16;32.98;102616.84;4943395;28;113875;-68
2021/03/19 10:43:50;;;;;;;2.03;0.83;;;;;;;19.21;33.04;102622.03;4935268;28;123968;-69
2021/03/19 10:46:45;;;;;;;1.80;0.70;;;;;;;19.16;33.13;102623.97;4943331;28;124007;-70
2021/03/19 10:49:18;;;;;;;0.85;0.52;;;;;;;19.21;32.78;102632.66;4912240;28;114305;-69
2021/03/19 10:51:52;;;;;;;4.18;1.13;;;;;;;19.26;33.14;102633.41;4940925;28;113721;-70
2021/03/19 10:54:33;;;;;;;3.35;1.02;;;;;;;19.28;33.68;102634.22;4926478;28;124810;-73
2021/03/19 10:57:14;;;;;;;13.02;2.50;;;;;;;19.37;34.06;102633.94;4941427;28;123908;-70
2021/03/19 10:59:40;;;;;;;13.60;2.72;;;;;;;19.40;34.56;102639.16;4935853;28;115252;-73
2021/03/19 11:02:12;;;;;;;23.23;4.03;;;;;;;19.49;34.87;102638.88;4938302;28;115303;-71
2021/03/19 11:05:06;;;;;;;21.58;4.20;;;;;;;19.53;34.91;102642.31;4941192;28;124252;-70
2021/03/19 11:07:34;;;;;;;;;;;;;;;19.57;34.90;102643.97;4932727;28;124414;-69
2021/03/19 11:15:43;;;;;;;27.42;4.43;;;;;;;19.65;34.85;102651.72;5807215;22;98618;-73
2021/03/19 11:18:37;;;;;;;18.17;3.08;;;;;;;19.72;35.26;102647.94;4987474;28;121198;-70
2021/03/19 11:21:06;;;;;;;18.33;3.45;;;;;;;19.71;35.26;102646.22;5405748;22;115095;-70
2021/03/19 11:23:46;;;;;;;14.93;3.72;;;;;;;19.76;35.04;102655.78;4951778;28;112974;-68
2021/03/19 11:26:24;;;;;;;14.30;3.72;;;;;;;19.84;35.60;102654.66;4933197;28;123174;-73
2021/03/19 11:29:25;;;;;;;13.75;2.95;;;;;;;19.89;35.77;102656.25;4930511;28;124508;-70
2021/03/19 11:32:17;;;;;;;13.73;3.67;;;;;;;19.93;35.95;102652.56;4939973;28;114153;-70
2021/03/19 11:34:48;;;;;;;13.55;3.22;;;;;;;19.84;36.09;102663.53;4937281;28;113953;-77
2021/03/19 11:37:32;;;;;;;6.78;2.50;;;;;;;19.84;35.92;102652.00;4937153;28;124018;-74
2021/03/19 11:40:08;;;;;;;8.90;2.80;;;;;;;19.78;36.33;102655.72;4933195;28;124077;-72
2021/03/19 11:42:40;;;;;;;12.57;2.90;;;;;;;19.86;36.05;102655.47;4933525;28;114575;-72
2021/03/19 11:45:16;;;;;;;7.60;2.08;;;;;;;19.93;36.46;102652.56;4938930;28;114144;-75
2021/03/19 11:48:05;;;;;;;8.45;2.53;;;;;;;19.97;36.70;102654.19;4920820;28;123612;-74
2021/03/19 11:50:35;;;;;;;9.75;2.00;;;;;;;20.05;36.56;102656.63;4929994;28;123903;-75
2021/03/19 11:53:16;;;;;;;8.82;2.28;;;;;;;20.09;36.39;102641.38;4935306;28;115388;-76
2021/03/19 11:55:45;;;;;;;7.57;1.65;;;;;;;20.12;36.20;102635.94;4946967;28;115100;-75
2021/03/19 11:58:16;;;;;;;8.35;1.70;;;;;;;20.10;35.92;102645.78;4938600;28;123704;-76
2021/03/19 12:00:43;;;;;;;7.95;2.05;;;;;;;20.16;36.01;102648.22;4938550;28;124773;-74
2021/03/19 12:03:36;;;;;;;4.90;1.45;;;;;;;20.13;35.93;102653.66;4942318;28;115294;-78
2021/03/19 12:06:03;;;;;;;3.20;1.52;;;;;;;20.16;36.11;102653.53;4941782;28;113459;-75
2021/03/19 12:08:31;;;;;;;3.70;1.55;;;;;;;20.05;36.56;102646.81;4937489;28;124981;-76
2021/03/19 12:10:58;;;;;;;5.15;1.77;;;;;;;20.20;36.00;102653.41;4925658;28;123809;-72
2021/03/19 12:13:25;;;;;;;4.75;1.38;;;;;;;20.25;35.33;102655.91;4928809;28;113628;-73
2021/03/19 12:15:51;;;;;;;6.10;1.10;;;;;;;20.26;34.95;102652.31;4944015;28;113877;-72
2021/03/19 12:18:23;;;;;;;3.30;0.95;;;;;;;20.28;34.84;102653.16;4944295;28;124107;-75